Time;durP1;ratioP1;P1;durP2;ratioP2;P2;SDS_P1;SDS_P2;PMS_P1;PMS_P2;Temp;Humidity;BMP_temperature;BMP_pressure;BME280_temperature;BME280_humidity;BME280_pressure;Samples;Min_cycle;Max_cycle;Signal;HPM_P1;HPM_P2
2022/05/16 00:01:05;;;;;;;5.63;3.42;;;;;;;25.40;47.80;100816.69;4181574;28;20032;-69
2022/05/16 00:03:08;;;;;;;3.92;3.53;;;;;;;25.47;47.38;100814.28;4180640;28;20095;-68
2022/05/16 00:05:09;;;;;;;7.53;3.65;;;;;;;25.48;47.59;100817.94;4163449;28;20025;-67
2022/05/16 00:07:11;;;;;;;7.18;3.30;;;;;;;25.45;47.28;100810.16;4174643;28;20099;-68
2022/05/16 00:09:13;;;;;;;3.90;3.50;;;;;;;25.48;47.45;100817.94;4164599;28;20546;-68
2022/05/16 00:11:17;;;;;;;4.85;3.63;;;;;;;25.48;47.48;100829.13;4165058;28;20037;-68
2022/05/16 00:13:22;;;;;;;3.97;3.47;;;;;;;25.41;47.39;100815.53;4163975;28;20104;-69
2022/05/16 00:15:24;;;;;;;4.65;3.90;;;;;;;25.49;47.42;100826.00;4165077;28;20033;-68
2022/05/16 00:17:26;;;;;;;3.80;3.45;;;;;;;25.48;47.49;100823.53;4164735;28;20099;-68
2022/05/16 00:19:31;;;;;;;5.25;3.78;;;;;;;25.50;47.63;100826.84;4164550;28;20461;-68
2022/05/16 00:21:34;;;;;;;9.75;3.13;;;;;;;25.49;47.61;100817.59;4164983;28;20370;-67
2022/05/16 00:23:35;;;;;;;3.72;3.30;;;;;;;25.51;47.69;100820.06;4165032;28;20037;-67
2022/05/16 00:25:37;;;;;;;3.92;3.50;;;;;;;25.51;47.40;100820.06;4171412;28;20044;-68
2022/05/16 00:27:38;;;;;;;4.85;3.72;;;;;;;24.96;47.60;100733.34;4180205;28;20036;-69
2022/05/16 00:29:40;;;;;;;6.65;3.63;;;;;;;25.50;47.36;100829.63;4181174;28;20041;-69
2022/05/16 00:31:41;;;;;;;3.50;3.20;;;;;;;25.51;47.67;100834.09;4181663;28;20048;-69
2022/05/16 00:33:45;;;;;;;3.83;3.45;;;;;;;25.47;47.95;100830.25;4181061;28;20040;-69
2022/05/16 00:35:49;;;;;;;5.00;3.50;;;;;;;25.51;47.72;100842.50;4180887;28;20420;-69
2022/05/16 00:37:51;;;;;;;9.27;3.38;;;;;;;25.51;47.87;100843.31;4174159;28;20095;-68
2022/05/16 00:39:52;;;;;;;8.20;3.58;;;;;;;25.51;47.80;100843.31;4179097;28;20075;-68
2022/05/16 00:41:53;;;;;;;4.88;3.78;;;;;;;25.51;48.09;100848.94;4164320;28;20099;-68
2022/05/16 00:43:59;;;;;;;4.38;3.53;;;;;;;25.52;48.10;100846.94;4164622;28;20042;-68
2022/05/16 00:46:01;;;;;;;4.25;3.38;;;;;;;25.51;48.19;100843.31;4164219;28;20041;-69
2022/05/16 00:48:02;;;;;;;4.20;3.65;;;;;;;25.52;48.11;100836.59;4164441;28;20358;-67
2022/05/16 00:50:05;;;;;;;4.22;3.60;;;;;;;25.52;48.36;100833.78;4164177;28;20103;-67
2022/05/16 00:52:16;;;;;;;3.53;3.15;;;;;;;25.52;48.26;100832.94;4164174;28;20088;-68
2022/05/16 00:54:32;;;;;;;4.85;3.53;;;;;;;25.51;48.25;100832.13;4165152;28;20034;-68
2022/05/16 00:56:33;;;;;;;;;;;;;;;25.51;48.37;100840.53;4163924;28;20476;-68
2022/05/16 00:58:39;;;;;;;5.05;3.38;;;;;;;25.57;47.69;100847.69;4164943;28;19913;-68
2022/05/16 01:00:42;;;;;;;14.18;3.35;;;;;;;25.56;47.91;100843.19;4163728;28;20071;-69
2022/05/16 01:05:11;;;;;;;5.63;4.03;;;;;;;25.50;48.16;100833.25;4164930;28;20092;-69
2022/05/16 01:07:25;;;;;;;5.55;3.75;;;;;;;25.54;48.43;100844.69;4163569;28;20477;-69
2022/05/16 01:09:26;;;;;;;4.57;3.25;;;;;;;25.56;48.17;100847.97;4164903;28;20034;-68
2022/05/16 01:11:27;;;;;;;5.65;3.50;;;;;;;25.56;48.46;100856.38;4165498;28;20025;-69
2022/05/16 01:13:31;;;;;;;4.13;3.53;;;;;;;25.55;48.20;100855.56;4164372;28;20091;-66
2022/05/16 01:15:39;;;;;;;4.57;3.83;;;;;;;25.54;48.45;100858.69;4166009;28;20041;-66
2022/05/16 01:17:43;;;;;;;7.10;3.85;;;;;;;25.44;48.59;100856.13;4167470;28;20477;-68
2022/05/16 01:19:46;;;;;;;3.92;3.38;;;;;;;25.52;48.52;100872.16;4181664;28;20045;-67
2022/05/16 01:21:47;;;;;;;3.83;3.20;;;;;;;25.54;48.44;100879.13;4180886;28;20041;-68
2022/05/16 01:23:56;;;;;;;6.82;3.65;;;;;;;25.55;48.65;100879.94;4181905;28;20426;-67
2022/05/16 01:25:59;;;;;;;3.95;3.55;;;;;;;25.56;48.78;100884.41;4181390;28;20094;-67
2022/05/16 01:28:04;;;;;;;5.07;3.70;;;;;;;25.56;48.90;100882.44;4183227;28;20760;-69
2022/05/16 01:30:06;;;;;;;5.40;3.83;;;;;;;25.54;48.93;100870.72;4181919;28;20037;-67
2022/05/16 01:32:10;;;;;;;4.50;3.88;;;;;;;25.27;49.23;100843.56;4182665;28;20041;-68
2022/05/16 01:34:12;;;;;;;5.03;3.88;;;;;;;25.58;49.24;100890.53;4181274;28;20379;-68
2022/05/16 01:36:15;;;;;;;4.72;4.03;;;;;;;25.56;48.70;100884.41;4181550;28;20033;-69
2022/05/16 01:38:22;;;;;;;7.50;4.45;;;;;;;25.57;48.95;100883.28;4181655;28;20472;-68
2022/05/16 01:40:23;;;;;;;6.10;4.53;;;;;;;25.56;49.29;100884.41;4180584;28;20095;-69
2022/05/16 01:42:27;;;;;;;7.28;4.38;;;;;;;25.58;49.44;100890.53;4168812;28;20099;-68
2022/05/16 01:44:31;;;;;;;5.27;3.80;;;;;;;25.58;49.33;100901.75;4166841;28;20026;-69
2022/05/16 01:46:39;;;;;;;4.95;3.88;;;;;;;25.58;49.06;100910.16;4146145;28;20315;-67
2022/05/16 01:48:40;;;;;;;5.18;4.35;;;;;;;25.59;49.62;100912.63;4148055;28;20112;-69
2022/05/16 01:50:43;;;;;;;4.90;3.92;;;;;;;25.60;49.86;100916.25;4164382;28;20064;-68
2022/05/16 01:52:45;;;;;;;6.07;4.53;;;;;;;25.59;49.48;100911.81;4165094;28;20095;-67
2022/05/16 01:54:49;;;;;;;7.57;4.70;;;;;;;25.59;49.21;100921.03;4165866;28;20038;-69
2022/05/16 01:56:50;;;;;;;7.18;4.85;;;;;;;25.60;49.51;100928.28;4165200;28;20049;-68
2022/05/16 01:58:52;;;;;;;5.30;4.60;;;;;;;25.62;49.84;100932.78;4168636;28;20037;-68
2022/05/16 02:00:54;;;;;;;5.07;4.15;;;;;;;25.59;49.04;100931.41;4170693;28;20484;-67
2022/05/16 02:02:55;;;;;;;4.68;4.13;;;;;;;25.60;49.09;100936.69;4171694;28;20538;-68
2022/05/16 02:04:57;;;;;;;5.07;3.85;;;;;;;25.62;49.53;100933.59;4154466;28;20046;-68
2022/05/16 02:06:58;;;;;;;4.65;4.25;;;;;;;25.62;49.67;100947.63;4170835;28;20091;-68
2022/05/16 02:09:00;;;;;;;7.03;4.30;;;;;;;25.62;49.85;100944.81;4170842;28;20049;-68
2022/05/16 02:11:02;;;;;;;5.90;5.00;;;;;;;25.63;49.84;100940.03;4170304;28;20095;-68
2022/05/16 02:13:05;;;;;;;8.35;4.90;;;;;;;25.62;49.64;100939.22;4172182;28;20025;-68
2022/05/16 02:15:09;;;;;;;7.32;4.78;;;;;;;25.63;50.06;100943.66;4171620;28;20041;-68
2022/05/16 02:17:11;;;;;;;5.18;4.63;;;;;;;25.62;49.41;100939.22;4171435;28;20033;-68
2022/05/16 02:19:12;;;;;;;4.47;4.07;;;;;;;25.62;49.54;100936.41;4152111;28;20065;-68
2022/05/16 02:25:56;;;;;;;4.93;4.43;;;;;;;25.54;51.21;100914.72;4171316;28;20099;-68
2022/05/16 02:27:58;;;;;;;5.78;4.25;;;;;;;25.63;50.14;100928.81;4168731;28;20049;-66
2022/05/16 02:30:02;;;;;;;4.10;3.72;;;;;;;25.63;50.16;100929.66;4168108;28;20034;-67
2022/05/16 02:32:05;;;;;;;5.43;4.53;;;;;;;25.63;49.98;100935.25;4167231;28;20037;-67
2022/05/16 02:34:08;;;;;;;7.35;4.60;;;;;;;25.64;50.00;100936.91;4149623;28;20497;-68
2022/05/16 02:36:09;;;;;;;4.43;3.70;;;;;;;25.65;50.08;100932.97;4167210;28;20108;-68
2022/05/16 02:38:12;;;;;;;7.15;4.25;;;;;;;25.64;50.18;100934.09;4167354;28;20083;-68
2022/05/16 02:40:13;;;;;;;5.43;4.78;;;;;;;25.65;49.76;100932.13;4166447;28;20034;-68
2022/05/16 02:42:15;;;;;;;6.82;3.88;;;;;;;25.64;50.12;100928.50;4167748;28;20034;-68
2022/05/16 02:44:17;;;;;;;4.57;4.18;;;;;;;25.65;49.94;100932.13;4167298;28;20072;-67
2022/05/16 02:46:19;;;;;;;4.68;3.85;;;;;;;25.63;49.97;100929.66;4151349;28;20038;-68
2022/05/16 02:48:20;;;;;;;5.57;4.53;;;;;;;25.65;50.58;100940.53;4152620;28;20161;-67
2022/05/16 02:50:23;;;;;;;6.15;4.05;;;;;;;25.63;50.26;100952.06;4150622;28;20108;-66
2022/05/16 02:52:27;;;;;;;4.82;4.30;;;;;;;25.62;50.41;100950.41;4166419;28;20049;-67
2022/05/16 02:54:29;;;;;;;4.75;4.07;;;;;;;25.64;50.53;100952.91;4166822;28;20033;-67
2022/05/16 02:56:34;;;;;;;4.55;4.15;;;;;;;25.64;50.52;100959.34;4166841;28;20037;-68
2022/05/16 02:58:35;;;;;;;;;;;;;;;25.62;50.36;100956.03;4165572;28;20087;-67
2022/05/16 03:00:38;;;;;;;6.00;4.10;;;;;;;25.68;50.61;100960.38;4167016;28;19913;-68
2022/05/16 03:02:40;;;;;;;5.63;4.78;;;;;;;25.68;50.04;100949.16;4165585;28;20037;-67
2022/05/16 03:04:41;;;;;;;5.60;4.43;;;;;;;25.66;50.40;100957.06;4165942;28;20164;-68
2022/05/16 03:06:45;;;;;;;7.05;4.45;;;;;;;25.61;50.09;100929.13;4165028;28;20118;-68
2022/05/16 03:08:46;;;;;;;4.43;4.03;;;;;;;25.65;50.27;100938.56;4166052;28;20424;-68
2022/05/16 03:10:48;;;;;;;4.85;4.22;;;;;;;25.66;50.51;100934.66;4147759;28;20466;-68
2022/05/16 03:12:52;;;;;;;6.63;4.00;;;;;;;25.65;50.19;100938.56;4166024;28;20103;-67
2022/05/16 03:14:53;;;;;;;6.07;4.13;;;;;;;25.65;50.45;100934.94;4165686;28;20076;-69
2022/05/16 03:16:55;;;;;;;4.25;3.85;;;;;;;25.64;50.03;100925.72;4166682;28;20034;-70
2022/05/16 03:18:59;;;;;;;5.25;4.10;;;;;;;25.63;50.15;100928.81;4166556;28;20041;-70
2022/05/16 03:21:01;;;;;;;4.88;3.95;;;;;;;25.64;49.90;100925.72;4161738;28;20037;-70
2022/05/16 03:23:02;;;;;;;5.15;4.28;;;;;;;25.37;50.05;100876.13;4163846;28;20038;-68
2022/05/16 03:25:05;;;;;;;3.85;3.55;;;;;;;25.56;50.10;100901.22;4165896;28;20034;-70
2022/05/16 03:27:06;;;;;;;4.97;3.72;;;;;;;25.63;50.23;100906.41;4179641;28;20045;-71
2022/05/16 03:29:11;;;;;;;4.88;4.03;;;;;;;25.62;50.56;100911.19;4181529;28;20484;-71
2022/05/16 03:31:12;;;;;;;4.85;4.18;;;;;;;25.63;50.31;100909.22;4182289;28;20044;-71
2022/05/16 03:33:16;;;;;;;4.22;3.83;;;;;;;25.65;49.99;100910.53;4182389;28;20041;-70
2022/05/16 03:35:23;;;;;;;5.33;4.07;;;;;;;25.65;50.08;100909.72;4181777;28;20053;-70
2022/05/16 03:37:24;;;;;;;3.90;3.47;;;;;;;25.65;50.22;100904.94;4182743;28;20045;-70
2022/05/16 03:41:46;;;;;;;9.02;4.03;;;;;;;25.65;50.21;100899.34;4183782;28;20086;-70
2022/05/16 03:43:47;;;;;;;5.15;3.67;;;;;;;25.65;50.12;100899.34;4180239;28;20087;-70
2022/05/16 03:45:50;;;;;;;5.25;4.05;;;;;;;25.64;50.37;100889.28;4182050;28;20049;-70
2022/05/16 03:47:52;;;;;;;4.35;3.95;;;;;;;25.65;49.79;100882.53;4182005;28;20079;-69
2022/05/16 03:49:53;;;;;;;5.85;4.45;;;;;;;25.65;50.02;100890.94;4182007;28;20098;-70
2022/05/16 03:51:54;;;;;;;5.60;4.47;;;;;;;25.61;50.01;100884.28;4183237;28;20041;-69
2022/05/16 03:53:56;;;;;;;4.95;4.45;;;;;;;25.63;50.40;100879.22;4174755;28;20049;-70
2022/05/16 03:56:03;;;;;;;4.93;3.92;;;;;;;25.58;50.42;100871.75;4165481;28;20374;-69
2022/05/16 03:58:05;;;;;;;5.57;4.20;;;;;;;25.65;50.12;100888.13;4165865;28;20046;-70
2022/05/16 04:00:09;;;;;;;6.70;4.22;;;;;;;25.62;49.98;100883.16;4166149;28;20050;-69
2022/05/16 04:02:11;;;;;;;;;;;;;;;25.63;50.72;100890.44;4148593;28;20124;-69
2022/05/16 04:04:12;;;;;;;5.40;4.20;;;;;;;25.69;50.25;100886.34;4164689;28;19971;-69
2022/05/16 04:06:17;;;;;;;5.78;3.90;;;;;;;25.69;50.56;100879.91;4164503;28;20432;-71
2022/05/16 04:08:18;;;;;;;;;;;;;;;25.67;49.97;100880.25;4164917;28;20110;-70
2022/05/16 04:10:23;;;;;;;4.43;4.03;;;;;;;25.71;50.03;100886.88;4165381;28;19917;-71
2022/05/16 04:12:24;;;;;;;6.03;4.15;;;;;;;25.71;50.14;100884.09;4165104;28;20477;-70
2022/05/16 04:14:28;;;;;;;6.88;4.20;;;;;;;25.69;50.12;100882.72;4165108;28;20436;-70
2022/05/16 04:16:32;;;;;;;6.20;4.40;;;;;;;25.67;50.55;100888.66;4164655;28;20041;-71
2022/05/16 04:18:36;;;;;;;4.07;3.75;;;;;;;25.67;50.34;100891.47;4165045;28;20049;-70
2022/05/16 04:20:38;;;;;;;4.10;3.70;;;;;;;25.64;50.44;100886.47;4165718;28;20029;-71
2022/05/16 04:22:40;;;;;;;6.53;3.85;;;;;;;25.67;50.16;100902.66;4166421;28;20056;-69
2022/05/16 04:24:41;;;;;;;5.90;4.00;;;;;;;25.67;50.35;100908.28;4164872;28;20095;-69
2022/05/16 04:26:43;;;;;;;4.88;3.33;;;;;;;25.66;50.53;100901.00;4164105;28;20037;-69
2022/05/16 04:28:47;;;;;;;5.13;3.55;;;;;;;25.66;50.09;100897.34;4165829;28;20068;-71
2022/05/16 04:30:48;;;;;;;6.55;4.28;;;;;;;25.67;50.27;100899.03;4165724;28;20049;-68
2022/05/16 04:32:50;;;;;;;5.30;3.95;;;;;;;25.66;50.55;100901.00;4165458;28;20037;-67
2022/05/16 04:34:54;;;;;;;5.45;3.92;;;;;;;25.67;50.69;100896.25;4147965;28;20053;-68
2022/05/16 04:36:55;;;;;;;4.30;3.85;;;;;;;25.67;50.85;100902.66;4164685;28;20111;-67
2022/05/16 04:38:56;;;;;;;5.45;4.03;;;;;;;25.67;50.43;100897.06;4164669;28;20045;-68
2022/05/16 04:43:20;;;;;;;3.90;3.60;;;;;;;25.68;50.69;100897.88;4164198;28;20530;-68
2022/05/16 04:45:28;;;;;;;6.13;4.25;;;;;;;25.67;51.03;100891.47;4163819;28;20091;-68
2022/05/16 04:47:32;;;;;;;5.10;4.32;;;;;;;25.68;50.19;100898.72;4164099;28;20037;-68
2022/05/16 04:49:33;;;;;;;17.80;4.13;;;;;;;25.65;50.87;100890.94;4164205;28;20046;-68
2022/05/16 04:51:35;;;;;;;7.15;4.00;;;;;;;25.68;50.59;100893.09;4164080;28;20111;-68
2022/05/16 04:53:36;;;;;;;7.22;4.65;;;;;;;25.68;51.07;100889.47;4164015;28;20095;-68
2022/05/16 04:55:38;;;;;;;4.78;3.80;;;;;;;25.67;50.85;100885.84;4164029;28;20041;-68
2022/05/16 04:57:40;;;;;;;7.47;4.10;;;;;;;25.68;50.46;100884.69;4164407;28;20068;-68
2022/05/16 05:00:02;;;;;;;8.55;4.50;;;;;;;25.43;50.33;100840.44;4171964;28;20037;-68
2022/05/16 05:02:04;;;;;;;8.13;3.85;;;;;;;25.68;50.57;100876.28;4180569;28;20107;-68
2022/05/16 05:04:05;;;;;;;5.10;3.88;;;;;;;25.68;50.08;100878.28;4173155;28;20076;-68
2022/05/16 05:06:07;;;;;;;5.47;4.03;;;;;;;25.68;50.77;100876.28;4163648;28;20041;-68
2022/05/16 05:08:09;;;;;;;4.55;3.90;;;;;;;25.68;50.48;100876.28;4164647;28;20033;-68
2022/05/16 05:14:53;;;;;;;5.10;3.75;;;;;;;25.67;50.57;100862.59;4164687;28;20135;-68
2022/05/16 05:16:55;;;;;;;5.78;3.90;;;;;;;25.67;50.34;100852.22;4163298;28;20042;-68
2022/05/16 05:18:56;;;;;;;6.05;4.18;;;;;;;25.65;50.63;100854.50;4164508;28;20046;-68
2022/05/16 05:21:01;;;;;;;4.90;4.40;;;;;;;25.66;50.53;100844.09;4165398;28;20046;-68
2022/05/16 05:25:28;;;;;;;4.18;3.78;;;;;;;25.59;50.42;100836.97;4148410;28;20108;-68
2022/05/16 05:27:32;;;;;;;5.93;4.35;;;;;;;25.66;50.25;100839.38;4163342;28;20046;-69
2022/05/16 05:29:33;;;;;;;4.47;4.07;;;;;;;25.66;50.26;100833.75;4163895;28;20137;-68
2022/05/16 05:31:34;;;;;;;6.22;3.70;;;;;;;25.66;50.27;100833.75;4145519;28;20053;-68
2022/05/16 05:33:35;;;;;;;4.97;3.95;;;;;;;25.65;50.36;100820.88;4165407;28;20045;-68
2022/05/16 05:35:37;;;;;;;5.70;4.32;;;;;;;25.65;50.64;100812.47;4166981;28;20045;-68
2022/05/16 05:37:38;;;;;;;5.03;3.65;;;;;;;25.64;50.38;100813.63;4168367;28;20072;-69
2022/05/16 05:39:39;;;;;;;5.03;4.00;;;;;;;25.64;50.25;100808.00;4183485;28;20041;-69
2022/05/16 05:41:41;;;;;;;7.07;3.83;;;;;;;25.63;50.22;100806.34;4183159;28;20499;-68
2022/05/16 05:43:45;;;;;;;4.75;4.05;;;;;;;25.64;50.25;100796.78;4183478;28;20037;-67
2022/05/16 05:45:46;;;;;;;4.13;3.38;;;;;;;25.64;50.22;100795.97;4183379;28;20037;-67
2022/05/16 05:47:48;;;;;;;6.43;4.05;;;;;;;25.64;50.17;100791.19;4183216;28;20052;-67
2022/05/16 05:49:52;;;;;;;4.13;3.72;;;;;;;25.65;50.20;100792.84;4183294;28;20419;-69
2022/05/16 05:51:55;;;;;;;6.07;4.20;;;;;;;25.65;50.51;100792.84;4183978;28;20044;-68
2022/05/16 05:53:57;;;;;;;4.43;4.03;;;;;;;25.64;50.10;100794.00;4183246;28;20103;-68
2022/05/16 05:55:58;;;;;;;5.15;3.85;;;;;;;25.65;50.26;100783.59;4183390;28;20103;-68
2022/05/16 05:57:59;;;;;;;6.43;4.30;;;;;;;25.64;50.42;100782.78;4184094;28;20037;-67
2022/05/16 06:00:03;;;;;;;6.72;4.40;;;;;;;25.64;50.30;100779.16;4182949;28;20045;-67
2022/05/16 06:02:09;;;;;;;6.13;4.10;;;;;;;25.56;50.58;100761.13;4169448;28;20108;-67
2022/05/16 06:04:11;;;;;;;4.80;3.72;;;;;;;25.64;50.29;100767.94;4167466;28;20079;-66
2022/05/16 06:06:12;;;;;;;5.30;4.60;;;;;;;25.64;50.29;100762.34;4165964;28;20041;-67
2022/05/16 06:08:14;;;;;;;4.35;3.95;;;;;;;25.63;50.15;100753.13;4166707;28;20103;-68
2022/05/16 06:10:15;;;;;;;4.60;4.20;;;;;;;25.62;50.27;100751.47;4166724;28;20096;-68
2022/05/16 06:12:17;;;;;;;4.90;3.83;;;;;;;25.62;50.29;100754.28;4166844;28;20103;-67
2022/05/16 06:14:18;;;;;;;4.30;3.90;;;;;;;25.57;50.25;100732.81;4166479;28;20091;-68
2022/05/16 06:16:19;;;;;;;5.15;3.83;;;;;;;25.61;50.40;100744.19;4166497;28;20037;-68
2022/05/16 06:18:22;;;;;;;4.10;3.70;;;;;;;25.60;50.32;100742.53;4166688;28;20037;-69
2022/05/16 06:20:24;;;;;;;4.35;3.72;;;;;;;25.62;50.22;100742.22;4166535;28;20037;-68
2022/05/16 06:22:26;;;;;;;4.50;4.10;;;;;;;25.60;50.14;100742.53;4166808;28;20088;-68
2022/05/16 06:26:48;;;;;;;6.47;3.72;;;;;;;25.57;50.08;100738.41;4167556;28;20087;-68
2022/05/16 06:28:50;;;;;;;5.22;4.25;;;;;;;25.60;50.06;100729.34;4166772;28;20104;-68
2022/05/16 06:30:53;;;;;;;4.38;3.78;;;;;;;25.60;50.29;100715.34;4166488;28;20919;-68
2022/05/16 06:32:54;;;;;;;4.82;4.20;;;;;;;25.59;50.26;100710.88;4166695;28;20042;-68
2022/05/16 06:34:56;;;;;;;5.20;3.45;;;;;;;25.58;50.18;100702.81;4167079;28;20087;-68
2022/05/16 06:36:57;;;;;;;4.78;4.22;;;;;;;25.59;50.07;100704.44;4169423;28;20037;-68
2022/05/16 06:39:01;;;;;;;4.40;3.38;;;;;;;25.59;50.09;100704.44;4183245;28;20111;-68
2022/05/16 06:41:03;;;;;;;4.18;3.78;;;;;;;25.58;49.92;100698.03;4182821;28;20040;-68
2022/05/16 06:43:05;;;;;;;4.53;3.95;;;;;;;25.58;50.08;100703.63;4182572;28;20115;-67
2022/05/16 06:45:08;;;;;;;4.25;3.85;;;;;;;25.59;50.02;100710.88;4182690;28;20082;-68
2022/05/16 06:47:09;;;;;;;5.57;3.80;;;;;;;25.48;50.02;100691.84;4181876;28;20445;-68
2022/05/16 06:49:11;;;;;;;4.40;4.00;;;;;;;25.51;50.23;100708.00;4183963;28;20468;-67
2022/05/16 06:51:13;;;;;;;4.53;4.13;;;;;;;25.58;50.46;100723.25;4182385;28;20557;-68
2022/05/16 06:53:20;;;;;;;3.90;3.42;;;;;;;25.58;50.07;100725.22;4165482;28;20115;-68
2022/05/16 06:55:22;;;;;;;4.50;4.05;;;;;;;25.54;50.18;100718.59;4170914;28;20053;-67
2022/05/16 06:57:27;;;;;;;4.18;3.78;;;;;;;25.58;50.31;100711.22;4165985;28;20041;-69
2022/05/16 06:59:29;;;;;;;4.70;3.88;;;;;;;25.55;50.04;100701.47;4165778;28;20046;-68
2022/05/16 07:01:30;;;;;;;5.53;3.50;;;;;;;25.58;49.97;100712.03;4166023;28;20087;-68
2022/05/16 07:03:32;;;;;;;4.00;3.60;;;;;;;25.51;50.12;100713.63;4166652;28;20124;-67
2022/05/16 07:05:34;;;;;;;5.72;3.97;;;;;;;25.31;49.90;100665.34;4166908;28;20029;-69
2022/05/16 07:07:51;;;;;;;4.03;3.67;;;;;;;25.58;50.05;100711.22;4166011;28;20092;-68
2022/05/16 07:09:55;;;;;;;4.20;3.80;;;;;;;25.59;50.01;100704.44;4165596;28;20041;-68
2022/05/16 07:11:56;;;;;;;4.30;3.90;;;;;;;25.58;49.82;100702.81;4157472;28;20037;-68
2022/05/16 07:13:58;;;;;;;4.55;4.05;;;;;;;25.57;49.81;100707.59;4182519;28;20095;-67
2022/05/16 07:16:00;;;;;;;4.43;3.80;;;;;;;25.57;50.12;100706.75;4182173;28;20037;-68
2022/05/16 07:18:01;;;;;;;5.43;4.28;;;;;;;25.56;49.67;100707.88;4182049;28;20107;-67
2022/05/16 07:20:03;;;;;;;7.70;3.90;;;;;;;25.56;49.95;100714.31;4181697;28;20045;-67
2022/05/16 07:22:10;;;;;;;4.55;4.00;;;;;;;25.57;50.18;100706.75;4182199;28;20052;-68
2022/05/16 07:24:14;;;;;;;5.07;3.95;;;;;;;25.56;49.72;100705.91;4182475;28;20041;-67
2022/05/16 07:28:39;;;;;;;4.28;3.85;;;;;;;25.57;49.89;100704.78;4182856;28;20106;-68
2022/05/16 07:30:40;;;;;;;3.97;3.67;;;;;;;25.57;49.90;100706.75;4182368;28;20045;-68
2022/05/16 07:32:44;;;;;;;4.90;3.55;;;;;;;25.53;49.97;100700.13;4181934;28;20099;-68
2022/05/16 07:34:46;;;;;;;4.03;3.65;;;;;;;25.56;50.05;100702.28;4181988;28;20029;-68
2022/05/16 07:36:48;;;;;;;4.97;3.90;;;;;;;25.57;49.80;100701.97;4181656;28;20052;-68
2022/05/16 07:38:50;;;;;;;3.60;3.30;;;;;;;25.56;49.83;100689.09;4182627;28;20071;-68
2022/05/16 07:40:52;;;;;;;4.63;3.47;;;;;;;25.56;49.83;100691.91;4181385;28;20091;-69
2022/05/16 07:42:54;;;;;;;3.97;3.40;;;;;;;25.56;49.59;100693.88;4181745;28;20029;-68
2022/05/16 07:45:01;;;;;;;4.78;3.50;;;;;;;25.56;49.97;100688.28;4178957;28;20041;-68
2022/05/16 07:47:03;;;;;;;4.20;3.80;;;;;;;25.56;49.60;100689.09;4164133;28;20045;-68
2022/05/16 07:49:07;;;;;;;3.50;3.20;;;;;;;25.51;49.89;100680.81;4164549;28;20096;-68
2022/05/16 07:51:09;;;;;;;4.60;3.70;;;;;;;25.57;49.67;100687.16;4165666;28;20080;-68
2022/05/16 07:53:14;;;;;;;3.58;3.28;;;;;;;25.56;49.81;100685.47;4165140;28;20317;-68
2022/05/16 07:55:24;;;;;;;4.88;3.60;;;;;;;25.56;49.85;100688.28;4164630;28;20428;-68
2022/05/16 07:57:25;;;;;;;3.83;3.53;;;;;;;25.47;49.78;100673.38;4164537;28;20045;-68
2022/05/16 07:59:26;;;;;;;4.47;3.78;;;;;;;25.56;49.90;100677.06;4164781;28;20104;-68
2022/05/16 08:01:28;;;;;;;5.90;3.78;;;;;;;25.56;49.53;100682.66;4164188;28;20091;-68
2022/05/16 08:03:33;;;;;;;4.00;3.55;;;;;;;25.56;49.97;100682.66;4165285;28;20033;-68
2022/05/16 08:05:37;;;;;;;4.22;3.60;;;;;;;25.48;49.72;100669.44;4164298;28;20092;-68
2022/05/16 08:10:29;;;;;;;3.63;3.25;;;;;;;25.50;49.70;100667.16;4164131;28;20095;-68
2022/05/16 08:12:25;;;;;;;4.32;3.65;;;;;;;25.56;49.74;100672.28;4165259;28;20087;-68
2022/05/16 08:14:29;;;;;;;5.15;3.95;;;;;;;25.57;49.69;100667.53;4164517;28;20041;-68
2022/05/16 08:16:31;;;;;;;4.22;3.35;;;;;;;25.57;49.71;100667.53;4164385;28;20041;-68
2022/05/16 08:18:32;;;;;;;4.03;3.72;;;;;;;25.54;49.76;100660.59;4180867;28;20118;-68
2022/05/16 08:20:35;;;;;;;5.05;3.47;;;;;;;25.55;49.61;100665.03;4181014;28;20373;-67
2022/05/16 08:22:36;;;;;;;4.80;3.55;;;;;;;25.55;49.48;100664.22;4181021;28;20036;-68
2022/05/16 08:24:38;;;;;;;3.85;3.55;;;;;;;25.48;49.64;100649.84;4180951;28;20102;-68
2022/05/16 08:26:39;;;;;;;5.80;3.83;;;;;;;25.56;49.52;100660.25;4180230;28;20040;-68
2022/05/16 08:28:42;;;;;;;4.28;3.88;;;;;;;25.56;49.45;100666.69;4179032;28;20126;-68
2022/05/16 08:30:43;;;;;;;4.13;3.72;;;;;;;25.55;49.96;100658.59;4164925;28;20049;-68
2022/05/16 08:32:56;;;;;;;4.38;3.72;;;;;;;25.55;49.63;100655.81;4164344;28;20041;-67
2022/05/16 08:35:00;;;;;;;3.90;3.53;;;;;;;25.55;49.48;100667.00;4163858;28;20435;-68
2022/05/16 08:41:53;;;;;;;4.03;3.50;;;;;;;25.55;49.55;100661.41;4165006;28;20091;-68
2022/05/16 08:44:07;;;;;;;3.90;3.58;;;;;;;25.55;49.89;100647.41;4163880;28;20072;-68
2022/05/16 08:46:08;;;;;;;4.63;4.00;;;;;;;25.55;49.69;100642.63;4175549;28;20103;-68
2022/05/16 08:48:24;;;;;;;3.95;3.38;;;;;;;25.54;49.71;100648.56;4179303;28;20534;-68
2022/05/16 08:50:52;;;;;;;3.75;3.35;;;;;;;25.51;50.07;100668.78;4178960;28;20076;-68
2022/05/16 08:53:05;;;;;;;4.18;3.78;;;;;;;25.52;49.86;100653.63;4180271;28;20045;-68
2022/05/16 08:55:25;;;;;;;4.38;3.35;;;;;;;25.53;49.94;100655.31;4179437;28;20157;-68
2022/05/16 08:57:45;;;;;;;4.32;3.92;;;;;;;25.52;49.69;100665.69;4180253;28;20318;-68
2022/05/16 08:59:57;;;;;;;4.03;3.40;;;;;;;25.52;49.73;100642.41;4180644;28;20041;-68
2022/05/16 09:02:10;;;;;;;4.18;3.58;;;;;;;25.53;49.74;100644.09;4180262;28;20033;-68
2022/05/16 09:04:16;;;;;;;3.70;3.40;;;;;;;25.53;49.69;100660.91;4180499;28;20103;-68
2022/05/16 09:06:25;;;;;;;3.65;3.35;;;;;;;25.52;49.87;100657.28;4179888;28;20041;-68
2022/05/16 09:08:47;;;;;;;4.35;3.53;;;;;;;25.53;49.79;100655.31;4182356;28;20087;-67
2022/05/16 09:11:08;;;;;;;4.75;3.28;;;;;;;25.52;49.58;100654.47;4182257;28;20395;-68
2022/05/16 09:13:41;;;;;;;4.18;3.55;;;;;;;25.52;49.79;100648.03;4184042;28;20037;-68
2022/05/16 09:15:49;;;;;;;4.10;3.70;;;;;;;25.54;50.00;100651.34;4184066;28;20103;-68
2022/05/16 09:18:22;;;;;;;3.88;3.53;;;;;;;25.52;50.04;100648.03;4183630;28;20045;-68
2022/05/16 09:21:03;;;;;;;3.80;3.47;;;;;;;25.52;49.86;100653.63;4183756;28;20435;-68
2022/05/16 09:23:41;;;;;;;3.67;3.38;;;;;;;25.54;49.86;100651.34;4133906;28;20423;-68
2022/05/16 09:26:19;;;;;;;4.07;3.60;;;;;;;25.53;49.62;100658.13;4183843;28;20048;-68
2022/05/16 09:28:35;;;;;;;3.50;3.15;;;;;;;25.55;49.67;100645.41;4167271;28;20098;-68
2022/05/16 09:30:38;;;;;;;;;;;;;;;25.52;50.09;100646.06;4168165;28;20045;-68
2022/05/16 09:32:44;;;;;;;3.55;3.25;;;;;;;25.49;49.39;100629.06;4167411;28;20360;-67
2022/05/16 09:34:45;;;;;;;4.07;3.58;;;;;;;25.53;49.48;100616.91;4166683;28;20111;-68
2022/05/16 09:36:49;;;;;;;3.58;3.20;;;;;;;25.54;49.23;100634.53;4167006;28;20095;-67
2022/05/16 09:38:54;;;;;;;3.53;3.22;;;;;;;25.46;49.55;100627.72;4166660;28;20370;-67
2022/05/16 09:41:10;;;;;;;5.72;3.55;;;;;;;25.55;49.52;100642.63;4167141;28;20041;-68
2022/05/16 09:43:20;;;;;;;3.35;3.05;;;;;;;25.54;49.55;100640.97;4166698;28;20370;-68
2022/05/16 09:45:29;;;;;;;3.97;3.50;;;;;;;25.45;49.50;100628.88;4166712;28;20099;-68
2022/05/16 09:47:37;;;;;;;3.40;3.10;;;;;;;25.55;49.33;100639.00;4166397;28;20114;-67
2022/05/16 09:49:39;;;;;;;3.90;3.47;;;;;;;25.55;49.54;100636.19;4166452;28;20122;-68
2022/05/16 09:51:45;;;;;;;3.50;3.20;;;;;;;25.46;49.35;100624.09;4166879;28;20049;-68
2022/05/16 09:53:46;;;;;;;3.45;3.10;;;;;;;25.55;49.07;100636.19;4166369;28;20099;-68
2022/05/16 09:55:55;;;;;;;3.90;3.58;;;;;;;25.48;49.38;100619.03;4166651;28;20107;-68
2022/05/16 09:57:59;;;;;;;3.92;3.53;;;;;;;25.51;49.36;100629.56;4166853;28;20098;-67
2022/05/16 10:00:43;;;;;;;3.28;2.97;;;;;;;25.52;49.22;100636.81;4166299;28;20313;-68
2022/05/16 10:02:55;;;;;;;4.10;3.70;;;;;;;25.54;49.76;100626.13;4166949;28;20037;-68
2022/05/16 10:05:02;;;;;;;3.80;3.47;;;;;;;25.55;49.62;100631.41;4165887;28;20140;-67
2022/05/16 10:07:06;;;;;;;4.22;3.13;;;;;;;25.56;49.48;100632.22;4166234;28;20041;-69
2022/05/16 10:09:23;;;;;;;3.88;3.38;;;;;;;25.51;49.72;100613.59;4166340;28;20045;-68
2022/05/16 10:11:28;;;;;;;3.60;3.30;;;;;;;25.55;49.41;100613.78;4166350;28;20111;-67